Time;durP1;ratioP1;P1;durP2;ratioP2;P2;SDS_P1;SDS_P2;PMS_P1;PMS_P2;Temp;Humidity;BMP_temperature;BMP_pressure;BME280_temperature;BME280_humidity;BME280_pressure;Samples;Min_cycle;Max_cycle;Signal;HPM_P1;HPM_P2
2022/10/24 00:00:32;;;;;;;3.78;1.27;;;;;;;;;;5035556;28;20029;-89
2022/10/24 00:02:58;;;;;;;6.70;1.98;;;;;;;;;;5033502;28;20048;-89
2022/10/24 00:05:25;;;;;;;4.95;1.60;;;;;;;;;;5059540;28;20036;-89
2022/10/24 00:07:51;;;;;;;3.10;1.42;;;;;;;;;;5054245;28;20070;-88
2022/10/24 00:10:17;;;;;;;4.15;1.83;;;;;;;;;;5020912;28;20077;-89
2022/10/24 00:12:44;;;;;;;5.47;1.90;;;;;;;;;;5070678;28;20025;-88
2022/10/24 00:15:10;;;;;;;3.72;1.25;;;;;;;;;;5070578;28;20091;-88
2022/10/24 00:17:35;;;;;;;5.15;1.80;;;;;;;;;;5037498;28;20112;-88
2022/10/24 00:20:04;;;;;;;3.65;1.58;;;;;;;;;;5053789;28;20025;-88
2022/10/24 00:22:32;;;;;;;4.88;1.60;;;;;;;;;;5037379;28;20040;-88
2022/10/24 00:25:01;;;;;;;3.65;1.92;;;;;;;;;;5053526;28;20029;-88
2022/10/24 00:27:26;;;;;;;3.58;1.63;;;;;;;;;;5037092;28;20025;-88
2022/10/24 00:29:54;;;;;;;2.38;1.30;;;;;;;;;;5070533;28;20035;-88
2022/10/24 00:32:21;;;;;;;3.95;1.73;;;;;;;;;;5070568;28;20052;-88
2022/10/24 00:34:47;;;;;;;4.22;2.28;;;;;;;;;;5053465;28;20475;-87
2022/10/24 00:37:14;;;;;;;4.15;1.48;;;;;;;;;;5070420;28;20025;-88
2022/10/24 00:39:40;;;;;;;4.78;1.42;;;;;;;;;;5070271;28;20032;-88
2022/10/24 00:42:07;;;;;;;3.47;1.40;;;;;;;;;;5053187;28;20048;-87
2022/10/24 00:44:35;;;;;;;4.30;1.60;;;;;;;;;;5053216;28;20033;-88
2022/10/24 00:47:07;;;;;;;2.70;1.38;;;;;;;;;;5036403;28;20025;-88
2022/10/24 00:49:59;;;;;;;3.67;1.47;;;;;;;;;;5020347;28;20029;-88
2022/10/24 00:52:28;;;;;;;3.95;1.52;;;;;;;;;;5037080;28;20037;-88
2022/10/24 00:54:54;;;;;;;4.88;1.30;;;;;;;;;;5036869;28;20063;-88
2022/10/24 00:57:36;;;;;;;5.20;1.73;;;;;;;;;;5069568;28;20037;-88
2022/10/24 01:00:15;;;;;;;3.58;1.50;;;;;;;;;;5038365;28;20029;-87
2022/10/24 01:02:41;;;;;;;2.58;1.10;;;;;;;;;;5053070;28;20412;-88
2022/10/24 01:05:07;;;;;;;2.53;1.25;;;;;;;;;;5052824;28;20029;-88
2022/10/24 01:07:52;;;;;;;3.67;1.27;;;;;;;;;;5069552;28;20028;-88
2022/10/24 01:10:22;;;;;;;3.08;1.50;;;;;;;;;;5035907;28;20029;-88
2022/10/24 01:13:26;;;;;;;3.25;1.55;;;;;;;;;;5036375;28;20033;-88
2022/10/24 01:16:13;;;;;;;3.03;1.40;;;;;;;;;;5069673;28;20483;-88
2022/10/24 01:18:38;;;;;;;1.88;0.90;;;;;;;;;;5036081;28;20056;-87
2022/10/24 01:21:28;;;;;;;3.50;1.48;;;;;;;;;;5036284;28;20471;-88
2022/10/24 01:24:21;;;;;;;5.00;1.60;;;;;;;;;;5052930;28;20046;-87
2022/10/24 01:27:11;;;;;;;3.22;1.00;;;;;;;;;;5022028;28;20510;-89
2022/10/24 01:30:13;;;;;;;2.63;1.35;;;;;;;;;;5069383;28;20082;-88
2022/10/24 01:32:44;;;;;;;5.50;1.87;;;;;;;;;;5047649;28;20052;-88
2022/10/24 01:35:13;;;;;;;3.70;1.30;;;;;;;;;;5035674;28;20028;-88
2022/10/24 01:37:44;;;;;;;3.15;1.20;;;;;;;;;;5052433;28;20039;-87
2022/10/24 01:40:15;;;;;;;2.72;1.50;;;;;;;;;;5068408;28;20029;-87
2022/10/24 01:42:42;;;;;;;3.28;1.27;;;;;;;;;;5069128;28;20032;-87
2022/10/24 01:45:08;;;;;;;2.33;1.40;;;;;;;;;;5068750;28;20124;-88
2022/10/24 01:47:45;;;;;;;2.75;1.17;;;;;;;;;;5068932;28;20037;-87
2022/10/24 01:50:12;;;;;;;2.03;1.08;;;;;;;;;;5035706;28;20029;-88
2022/10/24 01:52:40;;;;;;;2.83;1.10;;;;;;;;;;5052320;28;20044;-87
2022/10/24 01:55:06;;;;;;;2.17;1.05;;;;;;;;;;5067477;28;20036;-87
2022/10/24 01:57:33;;;;;;;2.65;1.20;;;;;;;;;;5068636;28;20029;-87
2022/10/24 01:59:58;;;;;;;2.70;1.42;;;;;;;;;;5051367;28;20074;-88
2022/10/24 02:02:28;;;;;;;2.55;1.00;;;;;;;;;;5068324;28;20079;-88
2022/10/24 02:05:03;;;;;;;2.47;0.85;;;;;;;;;;5018816;28;20214;-87
2022/10/24 02:07:30;;;;;;;3.10;1.23;;;;;;;;;;5051746;28;20040;-88
2022/10/24 02:09:59;;;;;;;3.63;1.70;;;;;;;;;;5048451;28;20026;-87
2022/10/24 02:12:24;;;;;;;2.97;1.70;;;;;;;;;;5031985;28;20124;-86
2022/10/24 02:15:04;;;;;;;3.05;1.40;;;;;;;;;;5014715;28;20033;-87
2022/10/24 02:17:32;;;;;;;2.42;1.27;;;;;;;;;;5033140;28;20048;-87
2022/10/24 02:19:59;;;;;;;2.45;1.00;;;;;;;;;;5031425;28;20037;-87
2022/10/24 02:22:49;;;;;;;3.30;1.25;;;;;;;;;;5031379;28;20052;-86
2022/10/24 02:25:18;;;;;;;2.40;1.10;;;;;;;;;;5030762;28;20113;-87
2022/10/24 02:27:49;;;;;;;2.05;1.00;;;;;;;;;;5031608;28;20037;-87
2022/10/24 02:30:17;;;;;;;2.03;0.88;;;;;;;;;;5031184;28;20049;-87
2022/10/24 02:32:46;;;;;;;3.58;1.30;;;;;;;;;;5031588;28;20040;-87
2022/10/24 02:35:14;;;;;;;2.70;1.05;;;;;;;;;;5031588;28;20017;-87
2022/10/24 02:37:47;;;;;;;3.20;1.25;;;;;;;;;;5031058;28;20041;-87
2022/10/24 02:40:13;;;;;;;2.78;1.40;;;;;;;;;;5031941;28;20025;-87
2022/10/24 02:42:40;;;;;;;4.32;1.65;;;;;;;;;;5030840;28;20107;-87
2022/10/24 02:45:08;;;;;;;3.33;1.00;;;;;;;;;;5014818;28;20077;-87
2022/10/24 02:47:35;;;;;;;2.58;1.00;;;;;;;;;;5031247;28;20037;-87
2022/10/24 02:50:01;;;;;;;1.75;0.82;;;;;;;;;;5031415;28;20104;-87
2022/10/24 02:52:29;;;;;;;2.35;0.93;;;;;;;;;;5030752;28;20036;-87
2022/10/24 02:54:55;;;;;;;1.88;0.82;;;;;;;;;;5030577;28;20042;-86
2022/10/24 02:57:24;;;;;;;2.92;1.10;;;;;;;;;;5030920;28;20120;-87
2022/10/24 02:59:49;;;;;;;2.20;1.00;;;;;;;;;;5030999;28;20053;-87
2022/10/24 03:02:15;;;;;;;2.22;0.90;;;;;;;;;;5031197;28;20033;-88
2022/10/24 03:04:42;;;;;;;2.22;0.95;;;;;;;;;;4998448;28;20061;-87
2022/10/24 03:07:10;;;;;;;2.72;0.95;;;;;;;;;;5047296;28;20365;-88
2022/10/24 03:09:36;;;;;;;2.33;1.00;;;;;;;;;;4998510;28;20031;-88
2022/10/24 03:12:02;;;;;;;4.30;1.00;;;;;;;;;;5051452;28;20033;-87
2022/10/24 03:14:27;;;;;;;2.38;0.63;;;;;;;;;;5068237;28;20030;-87
2022/10/24 03:16:54;;;;;;;2.88;1.00;;;;;;;;;;5068285;28;20094;-87
2022/10/24 03:19:19;;;;;;;2.65;0.75;;;;;;;;;;5051356;28;20036;-88
2022/10/24 03:21:47;;;;;;;1.85;0.77;;;;;;;;;;5067911;28;20069;-88
2022/10/24 03:24:12;;;;;;;2.53;0.95;;;;;;;;;;5051104;28;20171;-88
2022/10/24 03:26:39;;;;;;;3.30;1.02;;;;;;;;;;5051150;28;20037;-87
2022/10/24 03:29:05;;;;;;;2.92;1.15;;;;;;;;;;5067771;28;20033;-87
2022/10/24 03:31:32;;;;;;;3.90;0.98;;;;;;;;;;5034558;28;20033;-88
2022/10/24 03:33:59;;;;;;;2.05;1.00;;;;;;;;;;5034428;28;20123;-88
2022/10/24 03:36:26;;;;;;;1.98;0.88;;;;;;;;;;5050868;28;20041;-87
2022/10/24 03:38:55;;;;;;;2.40;0.98;;;;;;;;;;5050989;28;20033;-88
2022/10/24 03:41:21;;;;;;;1.92;0.82;;;;;;;;;;5034505;28;20037;-88
2022/10/24 03:43:48;;;;;;;2.40;0.90;;;;;;;;;;5050691;28;20026;-88
2022/10/24 03:46:14;;;;;;;2.50;0.98;;;;;;;;;;5067765;28;20037;-87
2022/10/24 03:48:41;;;;;;;3.13;0.82;;;;;;;;;;5067465;28;20045;-86
2022/10/24 03:51:07;;;;;;;1.75;0.68;;;;;;;;;;5066942;28;20045;-87
2022/10/24 03:53:32;;;;;;;2.15;0.93;;;;;;;;;;5066945;28;20033;-87
2022/10/24 03:55:59;;;;;;;2.10;0.77;;;;;;;;;;5050060;28;20071;-87
2022/10/24 03:58:24;;;;;;;3.78;0.80;;;;;;;;;;5050685;28;20037;-87
2022/10/24 04:00:50;;;;;;;2.72;1.10;;;;;;;;;;5041672;28;20041;-87
2022/10/24 04:03:15;;;;;;;3.83;0.85;;;;;;;;;;5053660;28;20120;-87
2022/10/24 04:05:40;;;;;;;2.83;1.20;;;;;;;;;;5053554;28;20043;-88
2022/10/24 04:08:08;;;;;;;2.70;0.80;;;;;;;;;;5053968;28;20032;-87
2022/10/24 04:10:35;;;;;;;1.95;0.70;;;;;;;;;;5070108;28;20041;-87
2022/10/24 04:13:03;;;;;;;2.58;0.98;;;;;;;;;;5070060;28;20044;-87
2022/10/24 04:15:30;;;;;;;2.70;1.02;;;;;;;;;;5053822;28;20031;-87
2022/10/24 04:17:56;;;;;;;1.60;0.60;;;;;;;;;;5053945;28;20601;-87
2022/10/24 04:20:23;;;;;;;2.58;0.57;;;;;;;;;;5053540;28;20052;-87
2022/10/24 04:22:50;;;;;;;3.97;1.27;;;;;;;;;;5036008;28;20031;-87
2022/10/24 04:25:16;;;;;;;2.55;0.98;;;;;;;;;;5052981;28;20082;-86
2022/10/24 04:27:42;;;;;;;2.58;1.08;;;;;;;;;;5069961;28;20037;-87
2022/10/24 04:30:09;;;;;;;1.88;0.63;;;;;;;;;;5053538;28;20034;-87
2022/10/24 04:32:36;;;;;;;1.48;0.60;;;;;;;;;;5036624;28;20037;-87
2022/10/24 04:35:02;;;;;;;1.13;0.70;;;;;;;;;;5070018;28;20495;-87
2022/10/24 04:37:28;;;;;;;3.65;0.90;;;;;;;;;;5053376;28;20032;-87
2022/10/24 04:39:54;;;;;;;1.13;0.55;;;;;;;;;;5069591;28;20025;-86
2022/10/24 04:42:21;;;;;;;1.77;0.65;;;;;;;;;;5053159;28;20060;-87
2022/10/24 04:44:48;;;;;;;1.98;0.70;;;;;;;;;;5020406;28;20383;-87
2022/10/24 04:47:14;;;;;;;2.83;1.38;;;;;;;;;;5069762;28;20120;-87
2022/10/24 04:49:40;;;;;;;0.80;0.45;;;;;;;;;;5052943;28;20033;-87
2022/10/24 04:52:07;;;;;;;2.53;0.80;;;;;;;;;;5069541;28;20033;-86
2022/10/24 04:54:33;;;;;;;3.53;1.08;;;;;;;;;;5068800;28;20032;-87
2022/10/24 04:56:59;;;;;;;2.53;0.85;;;;;;;;;;5068900;28;20052;-86
2022/10/24 04:59:24;;;;;;;2.35;0.68;;;;;;;;;;5069355;28;20044;-87
2022/10/24 05:01:49;;;;;;;3.75;0.70;;;;;;;;;;5069110;28;20041;-87
2022/10/24 05:04:15;;;;;;;1.75;0.52;;;;;;;;;;5052436;28;20047;-87
2022/10/24 05:06:42;;;;;;;2.67;0.98;;;;;;;;;;5069134;28;20399;-86
2022/10/24 05:09:09;;;;;;;3.17;0.52;;;;;;;;;;5002960;28;20163;-86
2022/10/24 05:11:35;;;;;;;3.03;0.85;;;;;;;;;;5003176;28;20182;-85
2022/10/24 05:14:02;;;;;;;1.92;0.60;;;;;;;;;;5019485;28;20086;-86
2022/10/24 05:16:29;;;;;;;1.48;0.60;;;;;;;;;;5018901;28;20052;-86
2022/10/24 05:18:59;;;;;;;2.28;0.82;;;;;;;;;;5018965;28;20041;-88
2022/10/24 05:21:32;;;;;;;1.50;0.73;;;;;;;;;;5002353;28;20115;-86
2022/10/24 05:23:58;;;;;;;1.30;0.50;;;;;;;;;;5019104;28;20032;-86
2022/10/24 05:26:25;;;;;;;1.48;0.50;;;;;;;;;;5002355;28;20048;-85
2022/10/24 05:28:52;;;;;;;1.85;0.55;;;;;;;;;;5018959;28;20025;-86
2022/10/24 05:31:17;;;;;;;2.67;0.60;;;;;;;;;;5018580;28;20039;-86
2022/10/24 05:33:45;;;;;;;1.65;0.70;;;;;;;;;;5017680;28;20029;-86
2022/10/24 05:36:11;;;;;;;3.05;0.40;;;;;;;;;;5018831;28;20048;-87
2022/10/24 05:38:38;;;;;;;2.33;0.60;;;;;;;;;;5019504;28;20031;-88
2022/10/24 05:41:05;;;;;;;3.72;0.90;;;;;;;;;;5019535;28;20036;-91
2022/10/24 05:43:34;;;;;;;2.95;0.90;;;;;;;;;;5019938;28;20442;-92
2022/10/24 05:46:02;;;;;;;3.40;1.50;;;;;;;;;;5020493;28;20505;-92
2022/10/24 05:48:31;;;;;;;3.97;1.60;;;;;;;;;;5017861;28;20395;-91
2022/10/24 05:50:57;;;;;;;4.53;1.70;;;;;;;;;;5032719;28;20075;-92
2022/10/24 05:53:23;;;;;;;2.65;1.50;;;;;;;;;;5016326;28;20391;-91
2022/10/24 05:55:49;;;;;;;4.10;1.02;;;;;;;;;;5049257;28;20052;-91
2022/10/24 05:58:21;;;;;;;5.93;1.20;;;;;;;;;;5046474;28;20025;-90
2022/10/24 06:00:47;;;;;;;3.00;1.10;;;;;;;;;;5000024;28;20095;-90
2022/10/24 06:03:15;;;;;;;3.88;1.17;;;;;;;;;;5032636;28;20499;-91
2022/10/24 06:05:42;;;;;;;3.22;1.23;;;;;;;;;;5032698;28;20079;-90
2022/10/24 06:08:09;;;;;;;6.00;1.20;;;;;;;;;;4999934;28;20037;-90
2022/10/24 06:10:41;;;;;;;7.85;1.23;;;;;;;;;;5032310;28;20116;-90
2022/10/24 06:13:06;;;;;;;4.50;1.75;;;;;;;;;;5015242;28;20128;-86
2022/10/24 06:15:32;;;;;;;9.68;1.80;;;;;;;;;;5031177;28;20139;-83
2022/10/24 06:17:59;;;;;;;7.95;1.67;;;;;;;;;;5030888;28;20172;-84
2022/10/24 06:20:24;;;;;;;9.45;1.70;;;;;;;;;;5031020;28;20041;-84
2022/10/24 06:22:50;;;;;;;6.38;1.63;;;;;;;;;;5047312;28;20064;-84
2022/10/24 06:25:16;;;;;;;7.60;2.15;;;;;;;;;;5030387;28;20434;-84
2022/10/24 06:27:41;;;;;;;8.75;1.77;;;;;;;;;;5030773;28;20415;-84
2022/10/24 06:30:09;;;;;;;10.55;1.63;;;;;;;;;;5030900;28;20033;-87
2022/10/24 06:32:35;;;;;;;7.63;1.63;;;;;;;;;;5031266;28;20388;-85
2022/10/24 06:35:02;;;;;;;9.70;1.83;;;;;;;;;;5047217;28;20029;-87
2022/10/24 06:37:29;;;;;;;7.25;1.75;;;;;;;;;;4998211;28;20045;-88
2022/10/24 06:39:57;;;;;;;5.93;1.75;;;;;;;;;;5035329;28;20124;-86
2022/10/24 06:42:23;;;;;;;11.23;2.08;;;;;;;;;;5017414;28;20040;-88
2022/10/24 06:44:50;;;;;;;6.68;1.75;;;;;;;;;;5017212;28;20078;-85
2022/10/24 06:47:16;;;;;;;6.32;1.70;;;;;;;;;;5017306;28;20021;-85
2022/10/24 06:49:41;;;;;;;5.88;2.00;;;;;;;;;;5000858;28;20517;-84
2022/10/24 06:52:07;;;;;;;9.23;2.13;;;;;;;;;;5017125;28;20021;-84
2022/10/24 06:54:34;;;;;;;8.20;1.63;;;;;;;;;;5016718;28;20036;-84
2022/10/24 06:57:00;;;;;;;6.10;1.75;;;;;;;;;;5017531;28;20502;-84
2022/10/24 06:59:26;;;;;;;5.18;0.93;;;;;;;;;;5017067;28;20032;-84
2022/10/24 07:01:52;;;;;;;7.13;1.73;;;;;;;;;;5017312;28;20395;-84
2022/10/24 07:04:18;;;;;;;4.60;1.20;;;;;;;;;;5017058;28;20021;-84
2022/10/24 07:06:43;;;;;;;8.82;1.67;;;;;;;;;;5017017;28;20369;-84
2022/10/24 07:09:09;;;;;;;8.80;1.60;;;;;;;;;;5016863;28;20537;-84
2022/10/24 07:11:34;;;;;;;5.93;1.23;;;;;;;;;;5016787;28;20037;-84
2022/10/24 07:14:00;;;;;;;10.05;2.15;;;;;;;;;;5015709;28;20029;-83
2022/10/24 07:16:25;;;;;;;6.35;1.23;;;;;;;;;;5000623;28;20021;-84
2022/10/24 07:18:51;;;;;;;5.10;1.38;;;;;;;;;;5000613;28;20029;-84
2022/10/24 07:21:18;;;;;;;6.10;1.90;;;;;;;;;;5017257;28;20036;-84
2022/10/24 07:23:44;;;;;;;7.15;1.33;;;;;;;;;;4999694;28;20475;-84
2022/10/24 07:26:11;;;;;;;4.47;1.20;;;;;;;;;;5016467;28;20047;-84
2022/10/24 07:28:36;;;;;;;3.13;0.73;;;;;;;;;;5000388;28;20376;-84
2022/10/24 07:31:02;;;;;;;4.55;1.67;;;;;;;;;;5016731;28;20100;-84
2022/10/24 07:33:27;;;;;;;6.25;1.00;;;;;;;;;;5015832;28;20021;-84
2022/10/24 07:35:53;;;;;;;4.18;1.48;;;;;;;;;;5032604;28;20047;-84
2022/10/24 07:38:18;;;;;;;3.65;1.00;;;;;;;;;;5033225;28;20041;-85
2022/10/24 07:40:44;;;;;;;3.88;1.25;;;;;;;;;;5000222;28;20124;-84
2022/10/24 07:43:09;;;;;;;5.22;1.05;;;;;;;;;;5000098;28;20074;-84
2022/10/24 07:45:34;;;;;;;3.72;1.27;;;;;;;;;;5033475;28;20112;-84
2022/10/24 07:48:00;;;;;;;4.05;1.23;;;;;;;;;;5033157;28;20041;-84
2022/10/24 07:50:26;;;;;;;4.57;2.47;;;;;;;;;;5032318;28;20379;-83
2022/10/24 07:52:51;;;;;;;11.73;5.80;;;;;;;;;;5031249;28;20037;-85
2022/10/24 07:55:17;;;;;;;13.52;6.57;;;;;;;;;;5030850;28;20037;-84
2022/10/24 07:57:42;;;;;;;8.10;3.75;;;;;;;;;;5018448;28;20033;-84
2022/10/24 08:00:09;;;;;;;13.25;6.80;;;;;;;;;;5036831;28;20033;-84
2022/10/24 08:02:34;;;;;;;8.40;4.22;;;;;;;;;;5003861;28;20021;-83
2022/10/24 08:05:00;;;;;;;13.27;6.40;;;;;;;;;;5019944;28;20394;-83
2022/10/24 08:07:28;;;;;;;13.70;6.47;;;;;;;;;;5020048;28;20056;-83
2022/10/24 08:09:54;;;;;;;16.27;7.43;;;;;;;;;;5049279;28;20030;-83
2022/10/24 08:12:19;;;;;;;16.77;8.30;;;;;;;;;;5016001;28;20507;-83
2022/10/24 08:14:45;;;;;;;15.90;8.05;;;;;;;;;;4983467;28;20109;-84
2022/10/24 08:17:10;;;;;;;14.27;7.72;;;;;;;;;;5016480;28;20116;-84
2022/10/24 08:19:40;;;;;;;14.50;7.72;;;;;;;;;;4999885;28;20025;-83
2022/10/24 08:22:07;;;;;;;19.38;8.48;;;;;;;;;;5017361;28;20031;-84
2022/10/24 08:24:33;;;;;;;13.15;7.78;;;;;;;;;;5015437;28;20026;-84
2022/10/24 08:26:59;;;;;;;13.93;7.78;;;;;;;;;;4999028;28;20037;-83
2022/10/24 08:29:24;;;;;;;16.70;8.00;;;;;;;;;;5018836;28;20045;-84
2022/10/24 08:31:54;;;;;;;12.70;7.25;;;;;;;;;;5019063;28;20029;-85
2022/10/24 08:34:20;;;;;;;13.43;7.50;;;;;;;;;;5031434;28;20056;-82
2022/10/24 08:36:46;;;;;;;12.10;6.70;;;;;;;;;;5058908;28;20757;-83
2022/10/24 08:39:13;;;;;;;12.95;6.13;;;;;;;;;;5034406;28;20035;-83
2022/10/24 08:41:55;;;;;;;13.55;6.32;;;;;;;;;;5060788;28;20024;-84
2022/10/24 08:44:28;;;;;;;15.32;5.88;;;;;;;;;;5026094;28;20029;-84
2022/10/24 08:47:03;;;;;;;15.10;6.00;;;;;;;;;;5042613;28;20030;-83
2022/10/24 08:49:38;;;;;;;13.30;6.07;;;;;;;;;;5049849;28;20044;-85
2022/10/24 08:52:41;;;;;;;13.25;6.20;;;;;;;;;;5035421;28;20487;-83
2022/10/24 08:55:36;;;;;;;14.95;6.13;;;;;;;;;;5032007;28;20120;-83
2022/10/24 08:58:14;;;;;;;13.85;6.25;;;;;;;;;;5011647;28;20028;-83
2022/10/24 09:00:42;;;;;;;15.23;5.82;;;;;;;;;;5045597;28;20036;-84
2022/10/24 09:03:27;;;;;;;13.38;6.07;;;;;;;;;;5018467;28;20025;-87
2022/10/24 09:06:11;;;;;;;12.82;4.45;;;;;;;;;;5058780;28;20382;-86
2022/10/24 09:08:50;;;;;;;15.25;5.65;;;;;;;;;;5043881;28;20044;-84
2022/10/24 09:11:21;;;;;;;19.33;5.60;;;;;;;;;;5026031;28;20064;-86
2022/10/24 09:13:47;;;;;;;16.30;6.50;;;;;;;;;;5025127;28;20017;-85
2022/10/24 09:16:13;;;;;;;19.92;5.88;;;;;;;;;;5018365;28;20040;-85
2022/10/24 09:18:40;;;;;;;11.48;4.65;;;;;;;;;;5001284;28;20025;-84
2022/10/24 09:21:07;;;;;;;10.20;4.50;;;;;;;;;;5009350;28;20117;-84
2022/10/24 09:23:34;;;;;;;9.35;4.40;;;;;;;;;;5033568;28;20061;-84
2022/10/24 09:26:01;;;;;;;11.32;4.60;;;;;;;;;;5025711;28;20029;-84
2022/10/24 09:28:39;;;;;;;13.63;3.72;;;;;;;;;;5018776;28;20387;-83
2022/10/24 09:31:16;;;;;;;13.85;4.45;;;;;;;;;;5023256;28;20037;-85
2022/10/24 09:33:42;;;;;;;11.30;3.83;;;;;;;;;;5009752;28;20052;-86
2022/10/24 09:36:11;;;;;;;12.75;4.25;;;;;;;;;;5057767;28;20059;-88
2022/10/24 09:38:42;;;;;;;11.25;4.05;;;;;;;;;;5024284;28;20034;-84
2022/10/24 09:41:12;;;;;;;10.73;4.13;;;;;;;;;;5015557;28;20035;-85
2022/10/24 09:43:47;;;;;;;10.93;3.47;;;;;;;;;;5056431;28;20037;-84
2022/10/24 09:46:20;;;;;;;13.88;5.07;;;;;;;;;;5034279;28;20117;-83
2022/10/24 09:49:11;;;;;;;11.32;3.95;;;;;;;;;;5016124;28;20063;-84
2022/10/24 09:51:40;;;;;;;11.50;4.63;;;;;;;;;;5034058;28;20067;-84
2022/10/24 09:54:17;;;;;;;11.25;4.18;;;;;;;;;;5023623;28;20040;-83
2022/10/24 09:56:43;;;;;;;12.82;4.43;;;;;;;;;;5033609;28;20108;-83
2022/10/24 09:59:36;;;;;;;10.57;4.70;;;;;;;;;;5009843;28;20022;-84
2022/10/24 10:02:23;;;;;;;13.10;3.85;;;;;;;;;;5050141;28;20032;-84
2022/10/24 10:05:03;;;;;;;9.43;3.90;;;;;;;;;;5039699;28;20029;-84
2022/10/24 10:07:36;;;;;;;11.80;4.50;;;;;;;;;;5048438;28;20044;-84
2022/10/24 10:10:36;;;;;;;10.80;3.85;;;;;;;;;;5009857;28;20017;-86
2022/10/24 10:13:18;;;;;;;12.93;4.57;;;;;;;;;;5057866;28;20024;-84
2022/10/24 10:15:45;;;;;;;12.23;3.92;;;;;;;;;;5057609;28;20029;-86
2022/10/24 10:18:38;;;;;;;14.55;4.40;;;;;;;;;;5040247;28;20369;-83
2022/10/24 10:21:08;;;;;;;12.95;4.65;;;;;;;;;;5038543;28;20025;-85
2022/10/24 10:23:47;;;;;;;11.52;3.97;;;;;;;;;;5040314;28;20059;-86
2022/10/24 10:26:28;;;;;;;15.13;4.38;;;;;;;;;;5038139;28;20116;-84
2022/10/24 10:29:18;;;;;;;12.60;4.47;;;;;;;;;;5057047;28;20030;-84
2022/10/24 10:31:57;;;;;;;18.48;4.35;;;;;;;;;;5056838;28;20043;-85
2022/10/24 10:34:29;;;;;;;11.15;4.13;;;;;;;;;;5024154;28;20467;-84
2022/10/24 10:37:07;;;;;;;12.50;4.33;;;;;;;;;;5039643;28;20379;-86
2022/10/24 10:40:02;;;;;;;11.55;4.20;;;;;;;;;;5039033;28;20371;-83
2022/10/24 10:43:03;;;;;;;16.33;4.35;;;;;;;;;;5042820;28;20031;-84
2022/10/24 10:45:49;;;;;;;10.40;3.22;;;;;;;;;;5023395;28;20037;-84
2022/10/24 10:48:35;;;;;;;12.82;4.53;;;;;;;;;;5018362;28;20037;-83
2022/10/24 10:51:28;;;;;;;13.30;3.80;;;;;;;;;;5049402;28;20044;-83
2022/10/24 10:54:05;;;;;;;13.65;3.40;;;;;;;;;;5034460;28;20037;-84
2022/10/24 10:56:56;;;;;;;12.85;3.30;;;;;;;;;;5032847;28;20044;-81
2022/10/24 10:59:36;;;;;;;12.82;3.88;;;;;;;;;;5033494;28;20036;-84
2022/10/24 11:02:14;;;;;;;10.60;3.03;;;;;;;;;;5035457;28;20021;-85
2022/10/24 11:04:50;;;;;;;10.02;3.08;;;;;;;;;;5032466;28;20115;-84
2022/10/24 11:07:21;;;;;;;8.60;2.75;;;;;;;;;;5049144;28;20032;-82
2022/10/24 11:09:48;;;;;;;8.05;3.13;;;;;;;;;;5009499;28;20079;-83
2022/10/24 11:12:41;;;;;;;13.57;3.15;;;;;;;;;;5024819;28;20041;-85
2022/10/24 11:15:23;;;;;;;10.95;3.33;;;;;;;;;;5012048;28;20067;-85
2022/10/24 11:18:42;;;;;;;16.02;3.53;;;;;;;;;;5057737;28;20041;-84
2022/10/24 11:21:12;;;;;;;10.95;2.35;;;;;;;;;;5039413;28;20029;-84
2022/10/24 11:24:16;;;;;;;8.68;3.13;;;;;;;;;;5005326;28;20033;-84
2022/10/24 11:27:10;;;;;;;8.75;2.33;;;;;;;;;;5049614;28;20487;-84
2022/10/24 11:30:18;;;;;;;9.20;2.53;;;;;;;;;;5024574;28;20073;-84
2022/10/24 11:32:51;;;;;;;9.35;2.58;;;;;;;;;;5034485;28;20108;-81
2022/10/24 11:35:39;;;;;;;10.80;3.03;;;;;;;;;;5020240;28;20509;-83
2022/10/24 11:38:12;;;;;;;9.02;3.28;;;;;;;;;;5037842;28;20116;-83
2022/10/24 11:40:38;;;;;;;8.70;2.80;;;;;;;;;;5020388;28;20083;-81
2022/10/24 11:43:06;;;;;;;10.93;3.03;;;;;;;;;;5042463;28;20793;-82
2022/10/24 11:45:46;;;;;;;14.30;3.50;;;;;;;;;;5033845;28;20041;-81
2022/10/24 11:48:18;;;;;;;9.00;3.38;;;;;;;;;;5015713;28;20079;-82
2022/10/24 11:51:16;;;;;;;7.25;2.72;;;;;;;;;;5050058;28;20547;-81
2022/10/24 11:53:50;;;;;;;10.30;3.03;;;;;;;;;;5024974;28;20037;-82
2022/10/24 11:56:23;;;;;;;12.32;3.03;;;;;;;;;;5054074;28;20471;-82
2022/10/24 11:59:00;;;;;;;11.68;3.08;;;;;;;;;;5049465;28;20039;-82
2022/10/24 12:01:46;;;;;;;7.78;2.75;;;;;;;;;;5018320;28;20699;-82
2022/10/24 12:04:45;;;;;;;7.78;2.42;;;;;;;;;;5036448;28;20611;-82
2022/10/24 12:07:36;;;;;;;10.57;2.78;;;;;;;;;;5036279;28;20107;-82
2022/10/24 12:10:24;;;;;;;5.75;2.55;;;;;;;;;;5036343;28;20049;-82
2022/10/24 12:13:12;;;;;;;11.52;2.63;;;;;;;;;;5020834;28;20037;-82
2022/10/24 12:16:04;;;;;;;11.75;2.45;;;;;;;;;;5035790;28;20029;-82
2022/10/24 12:18:38;;;;;;;16.00;5.30;;;;;;;;;;5071321;28;20071;-82
2022/10/24 12:21:06;;;;;;;13.20;5.95;;;;;;;;;;5020904;28;20037;-82
2022/10/24 12:23:31;;;;;;;11.32;5.50;;;;;;;;;;5003400;28;20032;-82
2022/10/24 12:26:21;;;;;;;11.80;5.30;;;;;;;;;;5019310;28;20495;-82
2022/10/24 12:29:06;;;;;;;10.40;4.90;;;;;;;;;;5028195;28;20564;-82
2022/10/24 12:31:32;;;;;;;10.15;4.47;;;;;;;;;;5019759;28;20032;-82
2022/10/24 12:34:15;;;;;;;10.13;3.70;;;;;;;;;;5035833;28;20032;-82
2022/10/24 12:37:00;;;;;;;18.63;4.65;;;;;;;;;;5052510;28;20545;-82
2022/10/24 12:39:30;;;;;;;8.80;3.03;;;;;;;;;;5052459;28;20033;-82
2022/10/24 12:41:55;;;;;;;8.05;2.78;;;;;;;;;;5002366;28;20037;-82
2022/10/24 12:44:33;;;;;;;8.02;2.92;;;;;;;;;;5018508;28;20029;-82
2022/10/24 12:46:59;;;;;;;9.80;2.83;;;;;;;;;;5052110;28;20479;-82
2022/10/24 12:49:31;;;;;;;5.70;2.67;;;;;;;;;;5002095;28;20073;-81
2022/10/24 12:51:58;;;;;;;5.28;1.88;;;;;;;;;;5036107;28;20029;-82
2022/10/24 12:54:43;;;;;;;12.75;2.72;;;;;;;;;;5002404;28;20411;-82
2022/10/24 12:57:11;;;;;;;11.13;2.40;;;;;;;;;;5034989;28;20074;-82
2022/10/24 12:59:46;;;;;;;12.02;2.95;;;;;;;;;;5035284;28;20402;-83
2022/10/24 13:02:11;;;;;;;5.45;2.47;;;;;;;;;;5018918;28;20061;-82
2022/10/24 13:04:55;;;;;;;6.65;1.80;;;;;;;;;;5051773;28;20501;-82
2022/10/24 13:07:29;;;;;;;5.75;1.80;;;;;;;;;;5034837;28;20078;-82
2022/10/24 13:09:57;;;;;;;5.35;1.92;;;;;;;;;;5051326;28;20029;-82
2022/10/24 13:12:31;;;;;;;5.95;1.80;;;;;;;;;;5050521;28;20064;-82
2022/10/24 13:15:15;;;;;;;7.60;1.83;;;;;;;;;;5051411;28;20032;-82
2022/10/24 13:17:49;;;;;;;8.25;2.15;;;;;;;;;;5051886;28;20083;-82
2022/10/24 13:20:22;;;;;;;8.30;2.03;;;;;;;;;;5034855;28;20480;-82
2022/10/24 13:22:49;;;;;;;5.35;1.13;;;;;;;;;;5018455;28;20108;-82
2022/10/24 13:25:20;;;;;;;4.10;1.25;;;;;;;;;;5018169;28;20108;-82
2022/10/24 13:27:45;;;;;;;7.68;1.15;;;;;;;;;;5018853;28;20032;-82
2022/10/24 13:30:30;;;;;;;7.85;1.55;;;;;;;;;;5018010;28;20028;-84
2022/10/24 13:33:30;;;;;;;6.25;1.83;;;;;;;;;;5051810;28;20033;-83
2022/10/24 13:36:20;;;;;;;7.03;1.45;;;;;;;;;;5068863;28;20075;-83
2022/10/24 13:38:57;;;;;;;6.38;1.23;;;;;;;;;;5049613;28;20483;-83
2022/10/24 13:41:35;;;;;;;5.50;1.65;;;;;;;;;;5017900;28;20087;-83
2022/10/24 13:44:29;;;;;;;5.95;1.67;;;;;;;;;;5018373;28;20041;-82
2022/10/24 13:47:16;;;;;;;10.02;1.25;;;;;;;;;;5023155;28;20045;-83
2022/10/24 13:49:57;;;;;;;6.68;1.80;;;;;;;;;;5034613;28;20040;-83
2022/10/24 13:52:29;;;;;;;6.22;1.35;;;;;;;;;;5014603;28;20029;-82
2022/10/24 13:55:02;;;;;;;7.30;1.55;;;;;;;;;;5030156;28;20042;-83
2022/10/24 13:57:32;;;;;;;4.68;1.33;;;;;;;;;;4982612;28;20025;-82
2022/10/24 14:00:00;;;;;;;6.55;1.50;;;;;;;;;;5007467;28;20057;-82
2022/10/24 14:02:28;;;;;;;6.80;1.40;;;;;;;;;;5050940;28;20120;-83
2022/10/24 14:04:54;;;;;;;6.55;1.73;;;;;;;;;;5018173;28;20104;-83
2022/10/24 14:07:22;;;;;;;8.35;1.42;;;;;;;;;;5017761;28;20060;-82
2022/10/24 14:10:13;;;;;;;5.68;1.45;;;;;;;;;;5002286;28;20483;-83
2022/10/24 14:12:39;;;;;;;5.97;1.23;;;;;;;;;;5012146;28;20091;-83
2022/10/24 14:15:05;;;;;;;9.02;1.50;;;;;;;;;;5001761;28;20090;-84
2022/10/24 14:17:33;;;;;;;7.78;1.60;;;;;;;;;;5018880;28;20029;-84
2022/10/24 14:20:08;;;;;;;5.20;1.40;;;;;;;;;;5019154;28;20532;-84
2022/10/24 14:22:38;;;;;;;6.25;1.50;;;;;;;;;;5034682;28;20403;-84
2022/10/24 14:25:28;;;;;;;5.30;1.38;;;;;;;;;;5034659;28;20036;-83
2022/10/24 14:27:55;;;;;;;6.90;1.35;;;;;;;;;;5028205;28;20033;-83
2022/10/24 14:30:23;;;;;;;3.90;1.20;;;;;;;;;;5030839;28;20127;-82
2022/10/24 14:32:49;;;;;;;4.25;1.38;;;;;;;;;;5031219;28;20026;-81
2022/10/24 14:35:15;;;;;;;6.47;1.50;;;;;;;;;;5001553;28;20215;-83
2022/10/24 14:37:41;;;;;;;5.35;1.60;;;;;;;;;;5012671;28;20045;-82
2022/10/24 14:40:16;;;;;;;6.55;1.52;;;;;;;;;;5014223;28;20401;-83
2022/10/24 14:42:44;;;;;;;7.32;1.70;;;;;;;;;;5028829;28;20037;-82
2022/10/24 14:45:26;;;;;;;12.68;1.95;;;;;;;;;;5013548;28;20045;-83
2022/10/24 14:47:52;;;;;;;;;;;;;;;;;;5029667;28;20068;-83
2022/10/24 14:50:38;;;;;;;5.50;0.88;;;;;;;;;;5029000;28;19956;-83
2022/10/24 14:53:03;;;;;;;7.97;1.77;;;;;;;;;;5029613;28;20025;-83
2022/10/24 14:55:29;;;;;;;9.00;2.00;;;;;;;;;;5046167;28;20067;-83
2022/10/24 14:57:55;;;;;;;7.88;1.80;;;;;;;;;;5013576;28;20316;-83
2022/10/24 15:00:22;;;;;;;6.22;1.50;;;;;;;;;;5025344;28;20102;-83
2022/10/24 15:02:50;;;;;;;4.70;1.17;;;;;;;;;;5033573;28;20068;-83
2022/10/24 15:05:26;;;;;;;7.55;1.45;;;;;;;;;;5000092;28;20040;-83
2022/10/24 15:07:52;;;;;;;6.53;1.35;;;;;;;;;;5032927;28;20502;-82